sensor_id;sensor_type;location;lat;lon;timestamp;P1;durP1;ratioP1;P2;durP2;ratioP2
24451;SDS011;13350;50.984;5.822;2023-02-28T00:00:10;5.38;;;4.00;;
24451;SDS011;13350;50.984;5.822;2023-02-28T00:02:40;7.90;;;4.22;;
24451;SDS011;13350;50.984;5.822;2023-02-28T00:05:09;7.70;;;3.80;;
24451;SDS011;13350;50.984;5.822;2023-02-28T00:07:38;5.57;;;3.67;;
24451;SDS011;13350;50.984;5.822;2023-02-28T00:10:05;6.88;;;4.15;;
24451;SDS011;13350;50.984;5.822;2023-02-28T00:12:34;5.78;;;3.55;;
24451;SDS011;13350;50.984;5.822;2023-02-28T00:15:02;6.07;;;3.72;;
24451;SDS011;13350;50.984;5.822;2023-02-28T00:17:31;8.63;;;3.92;;
24451;SDS011;13350;50.984;5.822;2023-02-28T00:20:00;5.78;;;3.75;;
24451;SDS011;13350;50.984;5.822;2023-02-28T00:22:37;6.30;;;4.20;;
24451;SDS011;13350;50.984;5.822;2023-02-28T00:25:06;6.32;;;3.92;;
24451;SDS011;13350;50.984;5.822;2023-02-28T00:27:34;9.13;;;4.15;;
24451;SDS011;13350;50.984;5.822;2023-02-28T00:30:02;6.45;;;4.10;;
24451;SDS011;13350;50.984;5.822;2023-02-28T00:32:30;6.05;;;3.85;;
24451;SDS011;13350;50.984;5.822;2023-02-28T00:34:57;6.60;;;4.07;;
24451;SDS011;13350;50.984;5.822;2023-02-28T00:37:25;6.53;;;4.15;;
24451;SDS011;13350;50.984;5.822;2023-02-28T00:39:52;8.52;;;3.90;;
24451;SDS011;13350;50.984;5.822;2023-02-28T00:42:20;8.55;;;4.45;;
24451;SDS011;13350;50.984;5.822;2023-02-28T00:44:47;6.20;;;3.80;;
24451;SDS011;13350;50.984;5.822;2023-02-28T00:47:14;6.22;;;4.15;;
24451;SDS011;13350;50.984;5.822;2023-02-28T00:49:41;6.38;;;4.25;;
24451;SDS011;13350;50.984;5.822;2023-02-28T00:52:09;5.53;;;4.00;;
24451;SDS011;13350;50.984;5.822;2023-02-28T00:54:38;7.80;;;4.22;;
24451;SDS011;13350;50.984;5.822;2023-02-28T00:57:05;6.82;;;4.03;;
24451;SDS011;13350;50.984;5.822;2023-02-28T00:59:32;5.18;;;3.92;;
24451;SDS011;13350;50.984;5.822;2023-02-28T01:01:59;6.70;;;4.10;;
24451;SDS011;13350;50.984;5.822;2023-02-28T01:04:27;8.27;;;4.43;;
24451;SDS011;13350;50.984;5.822;2023-02-28T01:06:54;5.93;;;4.43;;
24451;SDS011;13350;50.984;5.822;2023-02-28T01:09:21;8.90;;;4.28;;
24451;SDS011;13350;50.984;5.822;2023-02-28T01:11:49;6.07;;;4.15;;
24451;SDS011;13350;50.984;5.822;2023-02-28T01:14:17;6.75;;;4.20;;
24451;SDS011;13350;50.984;5.822;2023-02-28T01:16:44;6.65;;;4.15;;
24451;SDS011;13350;50.984;5.822;2023-02-28T01:19:11;5.57;;;4.03;;
24451;SDS011;13350;50.984;5.822;2023-02-28T01:21:39;6.75;;;4.28;;
24451;SDS011;13350;50.984;5.822;2023-02-28T01:24:06;5.10;;;4.18;;
24451;SDS011;13350;50.984;5.822;2023-02-28T01:26:33;6.68;;;4.45;;
24451;SDS011;13350;50.984;5.822;2023-02-28T01:29:02;8.98;;;4.28;;
24451;SDS011;13350;50.984;5.822;2023-02-28T01:31:29;6.45;;;4.30;;
24451;SDS011;13350;50.984;5.822;2023-02-28T01:33:56;5.43;;;3.65;;
24451;SDS011;13350;50.984;5.822;2023-02-28T01:36:24;7.38;;;4.30;;
24451;SDS011;13350;50.984;5.822;2023-02-28T01:38:51;5.70;;;4.13;;
24451;SDS011;13350;50.984;5.822;2023-02-28T01:41:19;6.00;;;4.30;;
24451;SDS011;13350;50.984;5.822;2023-02-28T01:43:55;7.75;;;4.82;;
24451;SDS011;13350;50.984;5.822;2023-02-28T01:46:30;5.45;;;4.25;;
24451;SDS011;13350;50.984;5.822;2023-02-28T01:49:00;7.57;;;4.63;;
24451;SDS011;13350;50.984;5.822;2023-02-28T01:51:33;6.82;;;4.60;;
24451;SDS011;13350;50.984;5.822;2023-02-28T01:54:03;9.15;;;4.22;;
24451;SDS011;13350;50.984;5.822;2023-02-28T01:56:38;9.98;;;5.15;;
24451;SDS011;13350;50.984;5.822;2023-02-28T01:59:11;6.20;;;3.97;;
24451;SDS011;13350;50.984;5.822;2023-02-28T02:01:41;6.35;;;4.47;;
24451;SDS011;13350;50.984;5.822;2023-02-28T02:04:08;6.68;;;4.65;;
24451;SDS011;13350;50.984;5.822;2023-02-28T02:06:37;5.55;;;4.40;;
24451;SDS011;13350;50.984;5.822;2023-02-28T02:09:06;5.95;;;4.05;;
24451;SDS011;13350;50.984;5.822;2023-02-28T02:11:34;5.00;;;4.00;;
24451;SDS011;13350;50.984;5.822;2023-02-28T02:14:24;5.20;;;3.92;;
24451;SDS011;13350;50.984;5.822;2023-02-28T02:17:13;5.10;;;3.92;;
24451;SDS011;13350;50.984;5.822;2023-02-28T02:25:59;6.80;;;5.15;;
24451;SDS011;13350;50.984;5.822;2023-02-28T02:28:46;10.35;;;4.47;;
24451;SDS011;13350;50.984;5.822;2023-02-28T02:34:52;7.35;;;4.18;;
24451;SDS011;13350;50.984;5.822;2023-02-28T02:37:27;6.03;;;4.50;;
24451;SDS011;13350;50.984;5.822;2023-02-28T02:40:04;7.43;;;4.60;;
24451;SDS011;13350;50.984;5.822;2023-02-28T02:42:40;5.90;;;4.70;;
24451;SDS011;13350;50.984;5.822;2023-02-28T02:45:12;5.70;;;3.95;;
24451;SDS011;13350;50.984;5.822;2023-02-28T02:47:43;9.75;;;5.10;;
24451;SDS011;13350;50.984;5.822;2023-02-28T02:50:13;7.43;;;4.45;;
24451;SDS011;13350;50.984;5.822;2023-02-28T02:52:47;7.00;;;4.75;;
24451;SDS011;13350;50.984;5.822;2023-02-28T02:55:18;7.00;;;4.60;;
24451;SDS011;13350;50.984;5.822;2023-02-28T02:57:48;9.45;;;5.68;;
24451;SDS011;13350;50.984;5.822;2023-02-28T03:00:19;8.68;;;6.55;;
24451;SDS011;13350;50.984;5.822;2023-02-28T03:02:50;8.73;;;5.85;;
24451;SDS011;13350;50.984;5.822;2023-02-28T03:05:23;11.55;;;6.03;;
24451;SDS011;13350;50.984;5.822;2023-02-28T03:07:53;7.65;;;5.57;;
24451;SDS011;13350;50.984;5.822;2023-02-28T03:10:31;6.78;;;5.10;;
24451;SDS011;13350;50.984;5.822;2023-02-28T03:16:03;7.22;;;5.53;;
24451;SDS011;13350;50.984;5.822;2023-02-28T03:18:47;8.50;;;6.20;;
24451;SDS011;13350;50.984;5.822;2023-02-28T03:21:24;9.02;;;5.80;;
24451;SDS011;13350;50.984;5.822;2023-02-28T03:24:01;7.70;;;5.60;;
24451;SDS011;13350;50.984;5.822;2023-02-28T03:26:33;8.15;;;5.85;;
24451;SDS011;13350;50.984;5.822;2023-02-28T03:29:05;9.05;;;5.93;;
24451;SDS011;13350;50.984;5.822;2023-02-28T03:31:41;11.88;;;5.97;;
24451;SDS011;13350;50.984;5.822;2023-02-28T03:34:15;9.98;;;5.68;;
24451;SDS011;13350;50.984;5.822;2023-02-28T03:36:49;9.23;;;5.20;;
24451;SDS011;13350;50.984;5.822;2023-02-28T03:39:22;7.78;;;5.78;;
24451;SDS011;13350;50.984;5.822;2023-02-28T03:41:55;9.18;;;4.68;;
24451;SDS011;13350;50.984;5.822;2023-02-28T03:44:27;7.68;;;5.43;;
24451;SDS011;13350;50.984;5.822;2023-02-28T03:46:57;6.53;;;5.25;;
24451;SDS011;13350;50.984;5.822;2023-02-28T03:49:27;7.53;;;5.78;;
24451;SDS011;13350;50.984;5.822;2023-02-28T03:52:01;6.38;;;5.15;;
24451;SDS011;13350;50.984;5.822;2023-02-28T03:54:30;9.02;;;4.90;;
24451;SDS011;13350;50.984;5.822;2023-02-28T03:57:02;7.05;;;4.95;;
24451;SDS011;13350;50.984;5.822;2023-02-28T03:59:34;7.88;;;4.55;;
24451;SDS011;13350;50.984;5.822;2023-02-28T04:02:06;9.75;;;5.47;;
24451;SDS011;13350;50.984;5.822;2023-02-28T04:04:34;7.30;;;4.90;;
24451;SDS011;13350;50.984;5.822;2023-02-28T04:07:04;7.90;;;4.70;;
24451;SDS011;13350;50.984;5.822;2023-02-28T04:09:32;8.50;;;5.45;;
24451;SDS011;13350;50.984;5.822;2023-02-28T04:12:00;7.47;;;5.30;;
24451;SDS011;13350;50.984;5.822;2023-02-28T04:14:27;9.15;;;5.97;;
24451;SDS011;13350;50.984;5.822;2023-02-28T04:16:54;8.25;;;5.88;;
24451;SDS011;13350;50.984;5.822;2023-02-28T04:19:22;9.68;;;5.63;;
24451;SDS011;13350;50.984;5.822;2023-02-28T04:21:49;6.35;;;4.85;;
24451;SDS011;13350;50.984;5.822;2023-02-28T04:24:20;7.90;;;5.72;;
24451;SDS011;13350;50.984;5.822;2023-02-28T04:26:49;10.35;;;6.72;;
24451;SDS011;13350;50.984;5.822;2023-02-28T04:29:19;9.48;;;6.40;;
24451;SDS011;13350;50.984;5.822;2023-02-28T04:31:47;11.43;;;6.22;;
24451;SDS011;13350;50.984;5.822;2023-02-28T04:34:15;12.30;;;6.57;;
24451;SDS011;13350;50.984;5.822;2023-02-28T04:36:44;11.02;;;6.75;;
24451;SDS011;13350;50.984;5.822;2023-02-28T04:39:14;10.45;;;6.85;;
24451;SDS011;13350;50.984;5.822;2023-02-28T04:41:44;13.23;;;7.40;;
24451;SDS011;13350;50.984;5.822;2023-02-28T04:44:12;10.23;;;7.03;;
24451;SDS011;13350;50.984;5.822;2023-02-28T04:46:39;11.68;;;6.40;;
24451;SDS011;13350;50.984;5.822;2023-02-28T04:49:07;8.90;;;6.18;;
24451;SDS011;13350;50.984;5.822;2023-02-28T04:51:37;10.02;;;6.63;;
24451;SDS011;13350;50.984;5.822;2023-02-28T04:54:04;9.57;;;6.90;;
24451;SDS011;13350;50.984;5.822;2023-02-28T04:56:31;8.98;;;6.00;;
24451;SDS011;13350;50.984;5.822;2023-02-28T04:59:00;9.63;;;6.57;;
24451;SDS011;13350;50.984;5.822;2023-02-28T05:01:28;10.85;;;5.80;;
24451;SDS011;13350;50.984;5.822;2023-02-28T05:03:58;9.20;;;6.10;;
24451;SDS011;13350;50.984;5.822;2023-02-28T05:06:30;8.98;;;5.90;;
24451;SDS011;13350;50.984;5.822;2023-02-28T05:08:58;9.80;;;6.95;;
24451;SDS011;13350;50.984;5.822;2023-02-28T05:11:26;11.57;;;6.40;;
24451;SDS011;13350;50.984;5.822;2023-02-28T05:14:01;10.30;;;5.72;;
24451;SDS011;13350;50.984;5.822;2023-02-28T05:16:29;8.07;;;5.88;;
24451;SDS011;13350;50.984;5.822;2023-02-28T05:18:56;9.57;;;6.85;;
24451;SDS011;13350;50.984;5.822;2023-02-28T05:21:25;9.15;;;6.45;;
24451;SDS011;13350;50.984;5.822;2023-02-28T05:23:54;8.80;;;6.30;;
24451;SDS011;13350;50.984;5.822;2023-02-28T05:26:22;9.32;;;7.15;;
24451;SDS011;13350;50.984;5.822;2023-02-28T05:28:49;10.05;;;6.75;;
24451;SDS011;13350;50.984;5.822;2023-02-28T05:31:18;9.15;;;5.38;;
24451;SDS011;13350;50.984;5.822;2023-02-28T05:33:45;9.68;;;5.68;;
24451;SDS011;13350;50.984;5.822;2023-02-28T05:36:13;8.95;;;5.65;;
24451;SDS011;13350;50.984;5.822;2023-02-28T05:38:40;8.70;;;6.15;;
24451;SDS011;13350;50.984;5.822;2023-02-28T05:41:08;10.48;;;5.88;;
24451;SDS011;13350;50.984;5.822;2023-02-28T05:43:36;7.75;;;4.70;;
24451;SDS011;13350;50.984;5.822;2023-02-28T05:46:04;9.10;;;5.60;;
24451;SDS011;13350;50.984;5.822;2023-02-28T05:48:34;10.00;;;6.00;;
24451;SDS011;13350;50.984;5.822;2023-02-28T05:51:03;9.80;;;6.47;;
24451;SDS011;13350;50.984;5.822;2023-02-28T05:53:31;8.20;;;5.40;;
24451;SDS011;13350;50.984;5.822;2023-02-28T05:55:59;8.27;;;6.10;;
24451;SDS011;13350;50.984;5.822;2023-02-28T05:58:26;9.18;;;5.97;;
24451;SDS011;13350;50.984;5.822;2023-02-28T06:00:56;13.23;;;6.10;;
24451;SDS011;13350;50.984;5.822;2023-02-28T06:03:24;10.18;;;5.95;;
24451;SDS011;13350;50.984;5.822;2023-02-28T06:05:52;7.70;;;5.75;;
24451;SDS011;13350;50.984;5.822;2023-02-28T06:08:20;9.77;;;5.93;;
24451;SDS011;13350;50.984;5.822;2023-02-28T06:10:47;7.97;;;5.65;;
24451;SDS011;13350;50.984;5.822;2023-02-28T06:13:14;7.47;;;5.60;;
24451;SDS011;13350;50.984;5.822;2023-02-28T06:15:41;7.47;;;5.30;;
24451;SDS011;13350;50.984;5.822;2023-02-28T06:18:09;9.90;;;5.22;;
24451;SDS011;13350;50.984;5.822;2023-02-28T06:20:36;7.43;;;5.03;;
24451;SDS011;13350;50.984;5.822;2023-02-28T06:23:04;6.97;;;4.82;;
24451;SDS011;13350;50.984;5.822;2023-02-28T06:25:31;8.93;;;4.70;;
24451;SDS011;13350;50.984;5.822;2023-02-28T06:27:59;6.70;;;4.57;;
24451;SDS011;13350;50.984;5.822;2023-02-28T06:30:26;5.97;;;4.65;;
24451;SDS011;13350;50.984;5.822;2023-02-28T06:32:56;8.40;;;4.60;;
24451;SDS011;13350;50.984;5.822;2023-02-28T06:35:23;6.03;;;4.32;;
24451;SDS011;13350;50.984;5.822;2023-02-28T06:37:51;7.15;;;4.32;;
24451;SDS011;13350;50.984;5.822;2023-02-28T06:40:20;4.82;;;3.88;;
24451;SDS011;13350;50.984;5.822;2023-02-28T06:42:47;6.55;;;3.97;;
24451;SDS011;13350;50.984;5.822;2023-02-28T06:45:14;7.20;;;4.38;;
24451;SDS011;13350;50.984;5.822;2023-02-28T06:47:42;6.72;;;4.15;;
24451;SDS011;13350;50.984;5.822;2023-02-28T06:50:09;6.00;;;4.20;;
24451;SDS011;13350;50.984;5.822;2023-02-28T06:52:38;5.72;;;4.10;;
24451;SDS011;13350;50.984;5.822;2023-02-28T06:55:06;8.38;;;4.40;;
24451;SDS011;13350;50.984;5.822;2023-02-28T06:57:36;6.00;;;3.75;;
24451;SDS011;13350;50.984;5.822;2023-02-28T07:00:04;5.32;;;3.72;;
24451;SDS011;13350;50.984;5.822;2023-02-28T07:02:33;6.18;;;4.13;;
24451;SDS011;13350;50.984;5.822;2023-02-28T07:05:00;7.00;;;3.83;;
24451;SDS011;13350;50.984;5.822;2023-02-28T07:07:28;5.95;;;3.95;;
24451;SDS011;13350;50.984;5.822;2023-02-28T07:09:55;4.10;;;3.20;;
24451;SDS011;13350;50.984;5.822;2023-02-28T07:12:22;5.40;;;3.47;;
24451;SDS011;13350;50.984;5.822;2023-02-28T07:14:51;4.55;;;3.53;;
24451;SDS011;13350;50.984;5.822;2023-02-28T07:17:19;4.68;;;3.38;;
24451;SDS011;13350;50.984;5.822;2023-02-28T07:19:46;6.80;;;3.85;;
24451;SDS011;13350;50.984;5.822;2023-02-28T07:22:13;4.00;;;3.40;;
24451;SDS011;13350;50.984;5.822;2023-02-28T07:24:41;4.05;;;3.50;;
24451;SDS011;13350;50.984;5.822;2023-02-28T07:27:08;4.75;;;3.28;;
24451;SDS011;13350;50.984;5.822;2023-02-28T07:29:35;4.25;;;3.05;;
24451;SDS011;13350;50.984;5.822;2023-02-28T07:32:04;6.55;;;3.47;;
24451;SDS011;13350;50.984;5.822;2023-02-28T07:34:32;5.03;;;3.05;;
24451;SDS011;13350;50.984;5.822;2023-02-28T07:36:59;6.68;;;3.88;;
24451;SDS011;13350;50.984;5.822;2023-02-28T07:39:28;4.82;;;3.47;;
24451;SDS011;13350;50.984;5.822;2023-02-28T07:41:56;7.22;;;3.65;;
24451;SDS011;13350;50.984;5.822;2023-02-28T07:44:24;4.03;;;3.60;;
24451;SDS011;13350;50.984;5.822;2023-02-28T07:46:52;5.40;;;3.58;;
24451;SDS011;13350;50.984;5.822;2023-02-28T07:49:20;5.38;;;3.63;;
24451;SDS011;13350;50.984;5.822;2023-02-28T07:51:48;6.32;;;3.88;;
24451;SDS011;13350;50.984;5.822;2023-02-28T07:54:15;4.88;;;3.83;;
24451;SDS011;13350;50.984;5.822;2023-02-28T07:56:42;6.55;;;2.85;;
24451;SDS011;13350;50.984;5.822;2023-02-28T07:59:09;8.38;;;3.05;;
24451;SDS011;13350;50.984;5.822;2023-02-28T08:01:36;6.53;;;3.28;;
24451;SDS011;13350;50.984;5.822;2023-02-28T08:04:04;6.20;;;3.25;;
24451;SDS011;13350;50.984;5.822;2023-02-28T08:06:32;5.75;;;3.10;;
24451;SDS011;13350;50.984;5.822;2023-02-28T08:09:00;3.72;;;2.78;;
24451;SDS011;13350;50.984;5.822;2023-02-28T08:11:27;3.38;;;2.55;;
24451;SDS011;13350;50.984;5.822;2023-02-28T08:13:54;4.85;;;3.05;;
24451;SDS011;13350;50.984;5.822;2023-02-28T08:16:22;3.78;;;2.78;;
24451;SDS011;13350;50.984;5.822;2023-02-28T08:18:49;4.47;;;2.90;;
24451;SDS011;13350;50.984;5.822;2023-02-28T08:21:17;4.60;;;2.53;;
24451;SDS011;13350;50.984;5.822;2023-02-28T08:23:47;3.40;;;2.55;;
24451;SDS011;13350;50.984;5.822;2023-02-28T08:26:15;5.38;;;2.53;;
24451;SDS011;13350;50.984;5.822;2023-02-28T08:28:42;4.15;;;2.50;;
24451;SDS011;13350;50.984;5.822;2023-02-28T08:31:10;3.47;;;2.22;;
24451;SDS011;13350;50.984;5.822;2023-02-28T08:33:38;3.22;;;2.28;;
24451;SDS011;13350;50.984;5.822;2023-02-28T08:36:07;2.90;;;2.42;;
24451;SDS011;13350;50.984;5.822;2023-02-28T08:38:35;2.60;;;2.10;;
24451;SDS011;13350;50.984;5.822;2023-02-28T08:41:05;2.20;;;2.00;;
24451;SDS011;13350;50.984;5.822;2023-02-28T08:43:34;2.67;;;2.25;;
24451;SDS011;13350;50.984;5.822;2023-02-28T08:46:01;3.75;;;2.58;;
24451;SDS011;13350;50.984;5.822;2023-02-28T08:48:29;3.58;;;2.17;;
24451;SDS011;13350;50.984;5.822;2023-02-28T08:50:58;4.13;;;2.30;;
24451;SDS011;13350;50.984;5.822;2023-02-28T08:53:27;2.85;;;2.05;;
24451;SDS011;13350;50.984;5.822;2023-02-28T08:55:58;2.65;;;2.08;;
24451;SDS011;13350;50.984;5.822;2023-02-28T08:58:27;2.88;;;1.80;;
24451;SDS011;13350;50.984;5.822;2023-02-28T09:00:55;3.15;;;2.28;;
24451;SDS011;13350;50.984;5.822;2023-02-28T09:03:22;2.13;;;1.85;;
24451;SDS011;13350;50.984;5.822;2023-02-28T09:05:53;2.65;;;1.90;;
24451;SDS011;13350;50.984;5.822;2023-02-28T09:08:21;2.97;;;1.83;;
24451;SDS011;13350;50.984;5.822;2023-02-28T09:10:49;2.72;;;1.70;;
24451;SDS011;13350;50.984;5.822;2023-02-28T09:13:17;5.18;;;2.00;;
24451;SDS011;13350;50.984;5.822;2023-02-28T09:15:46;4.60;;;2.22;;
24451;SDS011;13350;50.984;5.822;2023-02-28T09:18:13;3.85;;;2.10;;
24451;SDS011;13350;50.984;5.822;2023-02-28T09:20:41;2.88;;;1.88;;
24451;SDS011;13350;50.984;5.822;2023-02-28T09:23:09;2.72;;;1.60;;
24451;SDS011;13350;50.984;5.822;2023-02-28T09:25:37;2.50;;;1.30;;
24451;SDS011;13350;50.984;5.822;2023-02-28T09:28:11;2.38;;;2.00;;
24451;SDS011;13350;50.984;5.822;2023-02-28T09:30:39;1.90;;;1.63;;
24451;SDS011;13350;50.984;5.822;2023-02-28T09:33:08;2.33;;;1.40;;
24451;SDS011;13350;50.984;5.822;2023-02-28T09:35:35;1.20;;;1.10;;
24451;SDS011;13350;50.984;5.822;2023-02-28T09:38:02;1.50;;;1.27;;
24451;SDS011;13350;50.984;5.822;2023-02-28T09:40:30;3.20;;;1.45;;
24451;SDS011;13350;50.984;5.822;2023-02-28T09:42:58;1.70;;;1.50;;
24451;SDS011;13350;50.984;5.822;2023-02-28T09:45:27;3.15;;;1.88;;
24451;SDS011;13350;50.984;5.822;2023-02-28T09:47:59;1.55;;;1.40;;
24451;SDS011;13350;50.984;5.822;2023-02-28T09:50:32;1.67;;;1.30;;
24451;SDS011;13350;50.984;5.822;2023-02-28T09:53:02;1.50;;;1.40;;
24451;SDS011;13350;50.984;5.822;2023-02-28T09:55:33;1.52;;;1.38;;
24451;SDS011;13350;50.984;5.822;2023-02-28T09:58:05;2.03;;;1.42;;
24451;SDS011;13350;50.984;5.822;2023-02-28T10:00:42;2.17;;;1.40;;
24451;SDS011;13350;50.984;5.822;2023-02-28T10:03:24;1.38;;;1.27;;
24451;SDS011;13350;50.984;5.822;2023-02-28T10:08:29;3.40;;;1.30;;
24451;SDS011;13350;50.984;5.822;2023-02-28T10:11:09;1.52;;;1.38;;
24451;SDS011;13350;50.984;5.822;2023-02-28T10:13:40;2.55;;;1.30;;
24451;SDS011;13350;50.984;5.822;2023-02-28T10:16:20;1.30;;;1.15;;
24451;SDS011;13350;50.984;5.822;2023-02-28T10:18:54;1.10;;;1.00;;
24451;SDS011;13350;50.984;5.822;2023-02-28T10:21:27;1.20;;;0.90;;
24451;SDS011;13350;50.984;5.822;2023-02-28T10:24:01;1.87;;;1.20;;
24451;SDS011;13350;50.984;5.822;2023-02-28T10:26:37;4.20;;;1.75;;
24451;SDS011;13350;50.984;5.822;2023-02-28T10:29:04;1.27;;;0.90;;
24451;SDS011;13350;50.984;5.822;2023-02-28T10:31:34;1.10;;;1.00;;
24451;SDS011;13350;50.984;5.822;2023-02-28T10:34:01;1.27;;;1.00;;
24451;SDS011;13350;50.984;5.822;2023-02-28T10:36:32;2.35;;;1.00;;
24451;SDS011;13350;50.984;5.822;2023-02-28T10:39:02;1.13;;;0.90;;
24451;SDS011;13350;50.984;5.822;2023-02-28T10:42:05;1.52;;;1.00;;
24451;SDS011;13350;50.984;5.822;2023-02-28T10:44:54;0.75;;;0.73;;
24451;SDS011;13350;50.984;5.822;2023-02-28T10:47:33;1.45;;;0.90;;
24451;SDS011;13350;50.984;5.822;2023-02-28T10:50:04;1.67;;;0.82;;
24451;SDS011;13350;50.984;5.822;2023-02-28T10:52:37;1.27;;;0.95;;
24451;SDS011;13350;50.984;5.822;2023-02-28T10:55:18;1.52;;;1.08;;
24451;SDS011;13350;50.984;5.822;2023-02-28T10:57:48;1.55;;;1.00;;
24451;SDS011;13350;50.984;5.822;2023-02-28T11:00:17;1.58;;;0.90;;
24451;SDS011;13350;50.984;5.822;2023-02-28T11:02:47;0.82;;;0.80;;
24451;SDS011;13350;50.984;5.822;2023-02-28T11:05:28;1.23;;;0.93;;
24451;SDS011;13350;50.984;5.822;2023-02-28T11:07:59;1.23;;;1.10;;
24451;SDS011;13350;50.984;5.822;2023-02-28T11:10:32;1.02;;;0.93;;
24451;SDS011;13350;50.984;5.822;2023-02-28T11:13:00;1.75;;;1.00;;
24451;SDS011;13350;50.984;5.822;2023-02-28T11:15:29;1.27;;;0.90;;
24451;SDS011;13350;50.984;5.822;2023-02-28T11:17:59;2.05;;;1.08;;
24451;SDS011;13350;50.984;5.822;2023-02-28T11:20:28;2.35;;;1.20;;
24451;SDS011;13350;50.984;5.822;2023-02-28T11:22:59;1.08;;;0.80;;
24451;SDS011;13350;50.984;5.822;2023-02-28T11:25:30;1.60;;;1.00;;
24451;SDS011;13350;50.984;5.822;2023-02-28T11:28:01;1.58;;;1.10;;
24451;SDS011;13350;50.984;5.822;2023-02-28T11:30:32;1.63;;;1.10;;
24451;SDS011;13350;50.984;5.822;2023-02-28T11:33:16;1.40;;;1.08;;
24451;SDS011;13350;50.984;5.822;2023-02-28T11:35:48;1.52;;;1.08;;
24451;SDS011;13350;50.984;5.822;2023-02-28T11:38:18;3.78;;;1.15;;
24451;SDS011;13350;50.984;5.822;2023-02-28T11:40:46;1.90;;;1.08;;
24451;SDS011;13350;50.984;5.822;2023-02-28T11:43:26;1.20;;;1.10;;
24451;SDS011;13350;50.984;5.822;2023-02-28T11:46:10;1.25;;;1.10;;
24451;SDS011;13350;50.984;5.822;2023-02-28T11:48:49;1.65;;;1.20;;
24451;SDS011;13350;50.984;5.822;2023-02-28T11:51:21;1.77;;;1.30;;
24451;SDS011;13350;50.984;5.822;2023-02-28T11:54:08;1.85;;;1.20;;
24451;SDS011;13350;50.984;5.822;2023-02-28T11:57:00;1.10;;;1.00;;
24451;SDS011;13350;50.984;5.822;2023-02-28T11:59:47;1.17;;;1.08;;
24451;SDS011;13350;50.984;5.822;2023-02-28T12:02:24;1.40;;;1.17;;
24451;SDS011;13350;50.984;5.822;2023-02-28T12:05:00;1.30;;;1.15;;
24451;SDS011;13350;50.984;5.822;2023-02-28T12:07:42;1.33;;;1.15;;
24451;SDS011;13350;50.984;5.822;2023-02-28T12:10:24;4.22;;;1.20;;
24451;SDS011;13350;50.984;5.822;2023-02-28T12:12:57;1.30;;;1.20;;
24451;SDS011;13350;50.984;5.822;2023-02-28T12:18:39;3.13;;;1.23;;
24451;SDS011;13350;50.984;5.822;2023-02-28T12:21:18;2.42;;;1.27;;
24451;SDS011;13350;50.984;5.822;2023-02-28T12:24:00;2.00;;;1.20;;
24451;SDS011;13350;50.984;5.822;2023-02-28T12:26:44;2.65;;;1.30;;
24451;SDS011;13350;50.984;5.822;2023-02-28T12:29:14;1.35;;;1.20;;
24451;SDS011;13350;50.984;5.822;2023-02-28T12:31:46;2.20;;;1.40;;
24451;SDS011;13350;50.984;5.822;2023-02-28T12:34:19;2.72;;;1.58;;
24451;SDS011;13350;50.984;5.822;2023-02-28T12:36:49;1.77;;;1.20;;
24451;SDS011;13350;50.984;5.822;2023-02-28T12:39:20;1.90;;;1.35;;
24451;SDS011;13350;50.984;5.822;2023-02-28T12:41:55;2.53;;;1.40;;
24451;SDS011;13350;50.984;5.822;2023-02-28T12:44:28;2.83;;;1.50;;
24451;SDS011;13350;50.984;5.822;2023-02-28T12:47:01;2.05;;;1.38;;
24451;SDS011;13350;50.984;5.822;2023-02-28T12:49:31;2.40;;;1.58;;
24451;SDS011;13350;50.984;5.822;2023-02-28T12:52:01;1.88;;;1.30;;
24451;SDS011;13350;50.984;5.822;2023-02-28T12:54:31;2.92;;;1.60;;
24451;SDS011;13350;50.984;5.822;2023-02-28T12:57:08;4.00;;;1.60;;
24451;SDS011;13350;50.984;5.822;2023-02-28T12:59:42;2.15;;;1.30;;
24451;SDS011;13350;50.984;5.822;2023-02-28T13:05:29;2.13;;;1.38;;
24451;SDS011;13350;50.984;5.822;2023-02-28T13:08:12;1.75;;;1.42;;
24451;SDS011;13350;50.984;5.822;2023-02-28T13:11:02;1.48;;;1.38;;
24451;SDS011;13350;50.984;5.822;2023-02-28T13:13:31;3.17;;;1.50;;
24451;SDS011;13350;50.984;5.822;2023-02-28T13:16:00;2.88;;;1.58;;
24451;SDS011;13350;50.984;5.822;2023-02-28T13:18:32;1.40;;;1.30;;
24451;SDS011;13350;50.984;5.822;2023-02-28T13:21:02;1.83;;;1.30;;
24451;SDS011;13350;50.984;5.822;2023-02-28T13:23:56;2.25;;;1.77;;
24451;SDS011;13350;50.984;5.822;2023-02-28T13:29:31;1.83;;;1.52;;
24451;SDS011;13350;50.984;5.822;2023-02-28T13:35:14;2.30;;;1.67;;
24451;SDS011;13350;50.984;5.822;2023-02-28T13:44:04;2.55;;;1.30;;
24451;SDS011;13350;50.984;5.822;2023-02-28T13:46:35;1.77;;;1.55;;
24451;SDS011;13350;50.984;5.822;2023-02-28T13:49:24;1.63;;;1.20;;
24451;SDS011;13350;50.984;5.822;2023-02-28T13:51:53;1.27;;;1.17;;
24451;SDS011;13350;50.984;5.822;2023-02-28T13:54:32;3.08;;;1.60;;
24451;SDS011;13350;50.984;5.822;2023-02-28T13:57:11;2.35;;;1.40;;
24451;SDS011;13350;50.984;5.822;2023-02-28T13:59:51;1.88;;;1.55;;
24451;SDS011;13350;50.984;5.822;2023-02-28T14:02:38;3.03;;;1.50;;
24451;SDS011;13350;50.984;5.822;2023-02-28T14:05:20;1.30;;;1.20;;
24451;SDS011;13350;50.984;5.822;2023-02-28T14:07:52;1.90;;;1.48;;
24451;SDS011;13350;50.984;5.822;2023-02-28T14:10:24;2.22;;;1.35;;
24451;SDS011;13350;50.984;5.822;2023-02-28T14:12:58;1.92;;;1.25;;
24451;SDS011;13350;50.984;5.822;2023-02-28T14:15:47;3.13;;;1.50;;
24451;SDS011;13350;50.984;5.822;2023-02-28T14:18:20;2.50;;;1.48;;
24451;SDS011;13350;50.984;5.822;2023-02-28T14:20:52;1.98;;;1.50;;
24451;SDS011;13350;50.984;5.822;2023-02-28T14:23:35;2.45;;;1.58;;
24451;SDS011;13350;50.984;5.822;2023-02-28T14:26:19;4.88;;;1.50;;
24451;SDS011;13350;50.984;5.822;2023-02-28T14:29:08;2.55;;;1.35;;
24451;SDS011;13350;50.984;5.822;2023-02-28T14:31:53;2.17;;;1.58;;
24451;SDS011;13350;50.984;5.822;2023-02-28T14:37:19;1.90;;;1.52;;
24451;SDS011;13350;50.984;5.822;2023-02-28T14:39:52;3.58;;;1.38;;
24451;SDS011;13350;50.984;5.822;2023-02-28T14:42:31;2.78;;;1.30;;
24451;SDS011;13350;50.984;5.822;2023-02-28T14:44:59;2.90;;;1.70;;
24451;SDS011;13350;50.984;5.822;2023-02-28T14:47:27;1.65;;;1.25;;
24451;SDS011;13350;50.984;5.822;2023-02-28T14:49:59;2.55;;;1.70;;
24451;SDS011;13350;50.984;5.822;2023-02-28T14:52:29;1.90;;;1.52;;
24451;SDS011;13350;50.984;5.822;2023-02-28T14:54:58;4.40;;;1.38;;
24451;SDS011;13350;50.984;5.822;2023-02-28T14:57:27;1.50;;;1.40;;
24451;SDS011;13350;50.984;5.822;2023-02-28T15:00:03;3.70;;;1.60;;
24451;SDS011;13350;50.984;5.822;2023-02-28T15:02:37;2.95;;;1.80;;
24451;SDS011;13350;50.984;5.822;2023-02-28T15:08:02;2.95;;;1.80;;
24451;SDS011;13350;50.984;5.822;2023-02-28T15:10:32;2.72;;;1.75;;
24451;SDS011;13350;50.984;5.822;2023-02-28T15:13:01;1.95;;;1.45;;
24451;SDS011;13350;50.984;5.822;2023-02-28T15:15:35;2.15;;;1.63;;
24451;SDS011;13350;50.984;5.822;2023-02-28T15:18:08;2.40;;;1.73;;
24451;SDS011;13350;50.984;5.822;2023-02-28T15:20:43;1.60;;;1.50;;
24451;SDS011;13350;50.984;5.822;2023-02-28T15:23:11;4.05;;;2.10;;
24451;SDS011;13350;50.984;5.822;2023-02-28T15:25:39;2.40;;;1.70;;
24451;SDS011;13350;50.984;5.822;2023-02-28T15:28:09;2.08;;;1.35;;
24451;SDS011;13350;50.984;5.822;2023-02-28T15:30:50;2.67;;;2.13;;
24451;SDS011;13350;50.984;5.822;2023-02-28T15:33:19;2.65;;;1.95;;
24451;SDS011;13350;50.984;5.822;2023-02-28T15:35:49;2.05;;;1.50;;
24451;SDS011;13350;50.984;5.822;2023-02-28T15:38:21;3.83;;;1.67;;
24451;SDS011;13350;50.984;5.822;2023-02-28T15:40:50;3.05;;;1.70;;
24451;SDS011;13350;50.984;5.822;2023-02-28T15:43:25;5.15;;;2.08;;
24451;SDS011;13350;50.984;5.822;2023-02-28T15:45:55;2.92;;;2.13;;
24451;SDS011;13350;50.984;5.822;2023-02-28T15:48:25;2.13;;;1.67;;
24451;SDS011;13350;50.984;5.822;2023-02-28T15:50:57;2.40;;;1.88;;